Guymon Municipal Airport Guymon US
ICAO: KGUY
IATA: GUY
Category: Medium
Scheduled Services: No

Elevation: 3123 ft
TransAlt. 18000 ft.

Airport Communications:
ASOS:119.925
KANSAS CITY CNTR:134
CTAF/UNICOM:122.7

KGUY Zoom In..

If you have problems with the map follow the link
https://www.worldairports.se/pages/airport.php?
ICAO=KGUY

Runways:

(A) RW 18 length 5904 ft width 100 ft
---- / hdg 177

(B) RW 36 length 5904 ft width 100 ft
---- / hdg 357

Location; KGUY
Day. 16 / Time. 02.53 Zulu
* Altimeter: 30.12
* Temperature: 07° c. 44.6°f.
* Wind from: 360° Speed 06 kn.
Dewpoint: -02° c.
Visibility: 10 Statute Miles.
Clouds: Clear (automated report).

KGUY 160253Z AUTO 36006KT 10SM CLR 07/M02 A3012 RMK AO2 SLP196 T00671017 51017


Wind From 360°
Speed 06 kn.

 
 
jpsmedia.com for Web Design worldairports.se 2018   terms of use